Time;durP1;ratioP1;P1;durP2;ratioP2;P2;SDS_P1;SDS_P2;PMS_P1;PMS_P2;Temp;Humidity;BMP_temperature;BMP_pressure;BME280_temperature;BME280_humidity;BME280_pressure;Samples;Min_cycle;Max_cycle;Signal;HPM_P1;HPM_P2
2023/11/02 00:02:21;;;;;;;6.90;2.30;;;;;;;10.25;88.36;99598.78;5022879;28;20214;-75
2023/11/02 00:04:49;;;;;;;3.53;1.80;;;;;;;10.20;88.10;99594.50;5022780;28;20210;-75
2023/11/02 00:07:15;;;;;;;5.97;1.80;;;;;;;10.16;87.25;99590.28;5027512;28;20685;-75
2023/11/02 00:09:44;;;;;;;4.10;1.83;;;;;;;10.12;87.39;99594.72;5025339;28;20555;-75
2023/11/02 00:12:15;;;;;;;4.67;1.83;;;;;;;10.06;87.46;99585.56;5029747;28;20575;-75
2023/11/02 00:14:46;;;;;;;7.00;1.87;;;;;;;10.01;87.43;99585.78;5031125;28;20738;-75
2023/11/02 00:17:48;;;;;;;4.10;1.70;;;;;;;9.95;87.79;99581.91;5027413;28;20200;-75
2023/11/02 00:20:30;;;;;;;4.43;2.00;;;;;;;9.91;87.81;99575.78;4946615;28;20723;-75
2023/11/02 00:22:56;;;;;;;5.23;1.97;;;;;;;9.87;88.69;99578.34;5014090;28;20243;-76
2023/11/02 00:25:56;;;;;;;4.40;1.73;;;;;;;9.83;88.16;99577.50;5030200;28;20200;-75
2023/11/02 00:28:23;;;;;;;4.37;2.07;;;;;;;9.81;88.12;99578.94;5023572;28;20242;-76
2023/11/02 00:30:50;;;;;;;7.90;2.00;;;;;;;9.77;88.30;99578.88;5026575;28;20216;-76
2023/11/02 00:33:18;;;;;;;4.60;2.13;;;;;;;9.73;88.57;99562.22;5030032;28;20544;-75
2023/11/02 00:35:46;;;;;;;5.67;1.97;;;;;;;9.70;88.50;99562.16;5010500;28;20252;-76
2023/11/02 00:38:20;;;;;;;2.73;1.80;;;;;;;9.67;88.25;99562.81;5011042;28;20208;-74
2023/11/02 00:40:48;;;;;;;3.97;1.80;;;;;;;9.63;88.82;99562.75;5027927;28;20292;-75
2023/11/02 00:43:15;;;;;;;3.27;1.97;;;;;;;9.61;88.75;99551.00;5016114;28;20669;-75
2023/11/02 00:45:42;;;;;;;4.60;2.17;;;;;;;9.59;89.04;99558.50;5026229;28;20611;-76
2023/11/02 00:48:15;;;;;;;4.47;2.10;;;;;;;9.56;89.24;99553.91;5008121;28;20200;-75
2023/11/02 00:51:19;;;;;;;4.17;2.00;;;;;;;9.54;88.97;99540.31;5016771;28;20223;-75
2023/11/02 00:53:48;;;;;;;4.87;2.17;;;;;;;9.52;89.22;99532.00;5007858;28;20227;-76
2023/11/02 00:56:17;;;;;;;6.23;2.07;;;;;;;9.51;89.12;99525.19;5002026;28;20450;-74
2023/11/02 00:58:47;;;;;;;7.73;2.40;;;;;;;9.49;89.54;99520.28;5028824;28;20591;-75
2023/11/02 01:01:15;;;;;;;4.93;2.23;;;;;;;9.46;89.10;99515.69;5021797;28;20259;-75
2023/11/02 01:03:47;;;;;;;5.20;2.20;;;;;;;9.43;89.22;99502.44;5011303;28;20218;-76
2023/11/02 01:06:19;;;;;;;3.33;2.23;;;;;;;9.39;89.87;99499.72;5030836;28;20192;-76
2023/11/02 01:08:56;;;;;;;3.97;2.20;;;;;;;9.39;89.35;99502.38;5013669;28;20290;-75
2023/11/02 01:11:29;;;;;;;3.20;2.10;;;;;;;9.35;89.82;99508.66;5026803;28;20269;-75
2023/11/02 01:13:57;;;;;;;4.17;2.17;;;;;;;9.32;90.15;99511.97;5000584;28;20210;-75
2023/11/02 01:16:23;;;;;;;3.53;2.03;;;;;;;9.31;89.66;99499.91;5025572;28;20199;-75
2023/11/02 01:18:50;;;;;;;4.43;2.17;;;;;;;9.29;90.03;99491.56;5010378;28;20199;-76
2023/11/02 01:21:17;;;;;;;6.27;2.50;;;;;;;9.27;90.20;99480.63;5024783;28;20242;-75
2023/11/02 01:23:43;;;;;;;7.63;3.40;;;;;;;9.26;90.27;99485.13;5009541;28;20195;-75
2023/11/02 01:26:40;;;;;;;3.43;2.47;;;;;;;9.24;90.49;99487.34;5008861;28;20207;-75
2023/11/02 01:29:06;;;;;;;5.63;2.40;;;;;;;9.24;90.39;99483.94;5024812;28;20202;-76
2023/11/02 01:31:35;;;;;;;4.00;2.47;;;;;;;9.23;90.62;99488.47;5007476;28;20589;-76
2023/11/02 01:34:02;;;;;;;3.90;2.03;;;;;;;9.23;90.66;99477.16;5025044;28;20207;-75
2023/11/02 01:36:32;;;;;;;3.50;2.10;;;;;;;9.23;90.98;99479.78;5011203;28;20211;-76
2023/11/02 01:39:28;;;;;;;5.17;2.17;;;;;;;9.21;90.43;99477.47;5007536;28;20211;-76
2023/11/02 01:42:08;;;;;;;6.93;2.53;;;;;;;9.21;90.38;99484.63;5009283;28;20222;-75
2023/11/02 01:44:41;;;;;;;8.50;2.77;;;;;;;9.20;90.77;99473.31;5009217;28;20215;-76
2023/11/02 01:47:14;;;;;;;4.00;2.23;;;;;;;9.21;91.12;99482.75;5028871;28;20212;-76
2023/11/02 01:49:51;;;;;;;3.80;2.43;;;;;;;9.22;91.13;99479.00;5010199;28;20824;-76
2023/11/02 01:52:32;;;;;;;4.57;2.53;;;;;;;9.23;90.97;99474.50;5012300;28;20607;-74
2023/11/02 01:55:02;;;;;;;4.80;2.10;;;;;;;9.25;90.76;99464.38;5010848;28;20207;-76
2023/11/02 01:57:41;;;;;;;3.70;2.20;;;;;;;9.25;91.01;99459.91;5024489;28;20210;-76
2023/11/02 02:00:15;;;;;;;5.00;2.57;;;;;;;9.26;91.13;99463.31;5011071;28;20770;-75
2023/11/02 02:02:47;;;;;;;5.50;2.33;;;;;;;9.24;90.56;99468.91;5024175;28;20196;-75
2023/11/02 02:05:25;;;;;;;8.90;2.63;;;;;;;9.24;90.50;99476.81;5026374;28;20570;-75
2023/11/02 02:08:04;;;;;;;4.53;2.30;;;;;;;9.22;90.43;99473.00;5022529;28;20214;-76
2023/11/02 02:10:44;;;;;;;5.10;2.70;;;;;;;9.19;90.80;99455.22;5008669;28;20314;-76
2023/11/02 02:13:27;;;;;;;3.53;2.10;;;;;;;9.17;90.74;99460.09;5021626;28;20249;-75
2023/11/02 02:16:06;;;;;;;3.73;2.17;;;;;;;9.15;90.55;99452.53;5035258;28;20229;-76
2023/11/02 02:18:39;;;;;;;4.97;2.17;;;;;;;9.14;90.81;99452.84;5021402;28;20218;-75
2023/11/02 02:21:10;;;;;;;4.23;1.93;;;;;;;9.13;90.57;99444.22;5004147;28;20230;-75
2023/11/02 02:23:45;;;;;;;5.57;2.27;;;;;;;9.13;90.68;99441.56;5030855;28;20220;-76
2023/11/02 02:26:37;;;;;;;6.70;2.13;;;;;;;9.12;90.92;99440.03;5006260;28;20200;-75
2023/11/02 02:29:28;;;;;;;3.07;1.97;;;;;;;9.11;90.51;99433.25;5005458;28;20213;-75
2023/11/02 02:32:15;;;;;;;5.80;2.53;;;;;;;9.11;90.77;99435.13;5025649;28;20253;-75
2023/11/02 02:34:55;;;;;;;5.57;2.67;;;;;;;9.11;91.00;99451.66;5017470;28;20301;-76
2023/11/02 02:37:29;;;;;;;3.97;2.10;;;;;;;9.13;90.86;99432.91;5007075;28;20222;-75
2023/11/02 02:40:04;;;;;;;5.03;2.50;;;;;;;9.17;91.15;99428.47;5006371;28;20290;-76
2023/11/02 02:42:35;;;;;;;7.17;2.30;;;;;;;9.19;91.19;99428.88;5013868;28;20209;-75
2023/11/02 02:45:06;;;;;;;3.87;2.30;;;;;;;9.21;91.24;99440.63;5007569;28;20199;-76
2023/11/02 02:47:34;;;;;;;3.67;2.10;;;;;;;9.23;91.04;99443.69;5005986;28;20202;-76
2023/11/02 02:50:02;;;;;;;3.80;1.93;;;;;;;9.25;90.81;99444.09;5021888;28;20198;-76
2023/11/02 02:52:29;;;;;;;3.37;1.97;;;;;;;9.28;90.95;99446.06;5008411;28;20707;-75
2023/11/02 02:55:00;;;;;;;4.73;3.10;;;;;;;9.30;91.01;99438.56;5025306;28;20562;-76
2023/11/02 02:57:29;;;;;;;4.77;2.10;;;;;;;9.32;90.99;99436.34;5026049;28;20187;-76
2023/11/02 02:59:59;;;;;;;3.40;2.03;;;;;;;9.34;90.69;99436.78;5020974;28;20262;-75
2023/11/02 03:02:30;;;;;;;4.20;2.27;;;;;;;9.36;91.01;99428.50;5023581;28;20638;-76
2023/11/02 03:04:57;;;;;;;4.70;2.10;;;;;;;9.36;90.97;99423.22;5006713;28;20212;-76
2023/11/02 03:07:28;;;;;;;3.73;2.10;;;;;;;9.38;90.91;99421.03;5022857;28;20273;-74
2023/11/02 03:10:00;;;;;;;3.87;2.30;;;;;;;9.39;90.54;99412.00;5036311;28;20226;-76
2023/11/02 03:12:28;;;;;;;3.97;2.20;;;;;;;9.40;91.05;99414.31;5007741;28;20210;-75
2023/11/02 03:14:57;;;;;;;4.90;2.00;;;;;;;9.41;90.50;99418.47;5007706;28;20211;-75
2023/11/02 03:17:30;;;;;;;3.27;2.03;;;;;;;9.44;90.70;99417.00;5005591;28;20203;-76
2023/11/02 03:19:57;;;;;;;2.80;2.13;;;;;;;9.44;90.12;99412.53;5024929;28;20221;-75
2023/11/02 03:22:27;;;;;;;5.30;2.30;;;;;;;9.46;90.54;99422.69;5024324;28;20219;-75
2023/11/02 03:25:05;;;;;;;3.20;2.10;;;;;;;9.46;89.83;99415.56;5024310;28;20222;-75
2023/11/02 03:27:48;;;;;;;6.63;1.83;;;;;;;9.49;90.12;99416.75;5024185;28;20202;-75
2023/11/02 03:30:20;;;;;;;3.13;2.17;;;;;;;9.50;90.23;99408.50;5009384;28;20227;-75
2023/11/02 03:32:56;;;;;;;3.60;2.10;;;;;;;9.51;90.06;99399.47;5020467;28;20212;-75
2023/11/02 03:35:28;;;;;;;5.93;2.10;;;;;;;9.53;90.11;99396.50;5023664;28;20675;-75
2023/11/02 03:38:06;;;;;;;4.57;2.57;;;;;;;9.54;89.75;99388.25;5027645;28;20203;-76
2023/11/02 03:40:43;;;;;;;3.10;2.10;;;;;;;9.56;89.61;99385.25;5022014;28;20228;-75
2023/11/02 03:43:15;;;;;;;6.73;2.50;;;;;;;9.57;89.28;99381.53;5026508;28;20258;-76
2023/11/02 03:46:09;;;;;;;3.23;2.03;;;;;;;9.56;89.80;99385.25;5028624;28;20202;-76
2023/11/02 03:48:45;;;;;;;2.47;1.97;;;;;;;9.56;89.49;99382.63;5027104;28;20483;-76
2023/11/02 03:51:37;;;;;;;3.80;2.00;;;;;;;9.55;89.32;99379.25;5026359;28;20220;-76
2023/11/02 03:54:21;;;;;;;3.03;2.23;;;;;;;9.56;89.51;99375.47;5021746;28;20192;-75
2023/11/02 03:57:01;;;;;;;3.70;2.00;;;;;;;9.55;89.30;99373.19;5027534;28;20572;-75
2023/11/02 03:59:39;;;;;;;3.70;1.83;;;;;;;9.52;89.12;99377.28;5029098;28;20285;-75
2023/11/02 04:02:07;;;;;;;2.80;2.13;;;;;;;9.48;88.54;99370.44;5029075;28;20559;-76
2023/11/02 04:04:41;;;;;;;5.57;2.03;;;;;;;9.43;88.75;99371.44;5028841;28;20680;-76
2023/11/02 04:07:21;;;;;;;5.87;2.10;;;;;;;9.39;88.61;99375.91;5027224;28;20213;-75
2023/11/02 04:09:52;;;;;;;2.63;2.03;;;;;;;9.36;88.71;99378.44;5027739;28;20682;-75
2023/11/02 04:12:27;;;;;;;2.70;1.87;;;;;;;9.30;88.86;99364.03;5030119;28;20199;-75
2023/11/02 04:14:57;;;;;;;2.87;2.00;;;;;;;9.28;89.21;99358.34;5026438;28;20581;-75
2023/11/02 04:17:24;;;;;;;3.17;1.93;;;;;;;9.23;88.78;99354.13;5028434;28;20674;-76
2023/11/02 04:19:51;;;;;;;3.73;1.90;;;;;;;9.20;89.08;99343.50;5027120;28;20419;-75
2023/11/02 04:22:17;;;;;;;4.43;1.90;;;;;;;9.18;89.58;99348.38;5025921;28;20208;-75
2023/11/02 04:24:44;;;;;;;3.23;2.17;;;;;;;9.16;89.24;99337.41;5025288;28;20237;-76
2023/11/02 04:27:12;;;;;;;4.43;2.30;;;;;;;9.16;89.51;99340.06;5030031;28;20362;-75
2023/11/02 04:29:38;;;;;;;3.07;2.13;;;;;;;9.17;89.67;99323.13;5027907;28;20202;-76
2023/11/02 04:32:05;;;;;;;4.87;1.77;;;;;;;9.18;89.59;99322.81;5027589;28;20212;-76
2023/11/02 04:34:31;;;;;;;3.57;2.10;;;;;;;9.19;89.99;99323.53;5029789;28;20222;-75
2023/11/02 04:36:57;;;;;;;4.90;2.03;;;;;;;9.20;89.88;99319.78;5028473;28;20900;-76
2023/11/02 04:39:24;;;;;;;3.67;1.80;;;;;;;9.22;90.06;99307.81;5029653;28;20207;-76
2023/11/02 04:41:51;;;;;;;3.37;2.10;;;;;;;9.24;90.19;99307.47;5028838;28;20221;-75
2023/11/02 04:44:18;;;;;;;4.60;2.00;;;;;;;9.25;89.89;99295.81;5028067;28;20692;-75
2023/11/02 04:46:45;;;;;;;2.10;1.90;;;;;;;9.27;89.54;99293.63;5025593;28;20215;-76
2023/11/02 04:49:12;;;;;;;4.83;1.90;;;;;;;9.28;90.34;99287.22;5030872;28;20211;-75
2023/11/02 04:51:39;;;;;;;4.87;2.20;;;;;;;9.28;89.34;99289.88;5025230;28;20211;-76
2023/11/02 04:54:06;;;;;;;5.00;1.93;;;;;;;9.30;89.74;99279.72;5030821;28;20202;-75
2023/11/02 04:56:33;;;;;;;2.50;2.07;;;;;;;9.30;89.27;99271.84;5027219;28;20645;-75
2023/11/02 04:59:00;;;;;;;4.13;2.03;;;;;;;9.30;88.70;99264.72;5029041;28;20195;-76
2023/11/02 05:01:27;;;;;;;4.33;2.63;;;;;;;9.29;88.98;99271.09;5027714;28;20214;-76
2023/11/02 05:03:55;;;;;;;2.30;1.83;;;;;;;9.27;89.28;99268.03;5028612;28;20558;-76
2023/11/02 05:06:22;;;;;;;1.73;1.50;;;;;;;9.24;89.29;99263.47;5030227;28;20246;-76
2023/11/02 05:08:48;;;;;;;4.20;2.10;;;;;;;9.21;88.66;99266.78;5025687;28;20207;-75
2023/11/02 05:11:15;;;;;;;5.13;2.00;;;;;;;9.18;88.80;99253.56;5027949;28;20213;-75
2023/11/02 05:13:41;;;;;;;1.97;1.77;;;;;;;9.14;89.60;99250.09;5026155;28;20210;-75
2023/11/02 05:16:08;;;;;;;3.63;2.13;;;;;;;9.10;89.29;99244.75;5029294;28;20230;-75
2023/11/02 05:18:36;;;;;;;3.80;1.97;;;;;;;9.07;89.27;99237.53;5026163;28;20225;-75
2023/11/02 05:21:02;;;;;;;3.23;2.30;;;;;;;9.03;89.33;99235.94;5027888;28;20296;-75
2023/11/02 05:23:28;;;;;;;3.90;1.90;;;;;;;8.99;89.00;99225.34;5027746;28;20201;-75
2023/11/02 05:25:55;;;;;;;3.30;1.90;;;;;;;8.94;88.86;99216.97;5029031;28;20201;-75
2023/11/02 05:28:22;;;;;;;2.87;2.13;;;;;;;8.89;88.96;99207.50;5027413;28;20212;-76
2023/11/02 05:30:48;;;;;;;2.53;1.83;;;;;;;8.83;89.11;99211.50;5027015;28;20591;-75
2023/11/02 05:33:14;;;;;;;2.50;1.80;;;;;;;8.78;89.15;99206.53;5027800;28;20193;-75
2023/11/02 05:35:42;;;;;;;4.33;1.80;;;;;;;8.72;89.38;99205.28;5026192;28;20228;-75
2023/11/02 05:38:08;;;;;;;2.57;1.77;;;;;;;8.68;89.56;99195.75;5028656;28;20209;-75
2023/11/02 05:40:35;;;;;;;2.00;1.80;;;;;;;8.63;89.31;99188.16;5030508;28;20216;-74
2023/11/02 05:43:01;;;;;;;3.13;2.00;;;;;;;8.58;89.80;99185.78;5025515;28;20229;-75
2023/11/02 05:45:28;;;;;;;1.93;1.73;;;;;;;8.54;89.72;99182.34;5027017;28;20283;-75
2023/11/02 05:47:54;;;;;;;3.53;1.90;;;;;;;8.50;89.96;99181.50;5027982;28;20205;-74
2023/11/02 05:50:21;;;;;;;3.47;2.07;;;;;;;8.45;90.34;99176.50;5027613;28;20213;-74
2023/11/02 05:52:49;;;;;;;1.63;1.50;;;;;;;8.42;90.29;99177.97;5026389;28;20196;-75
2023/11/02 05:55:15;;;;;;;5.97;1.93;;;;;;;8.39;90.34;99168.13;5028041;28;20200;-74
2023/11/02 05:57:42;;;;;;;2.23;1.87;;;;;;;8.37;90.56;99161.69;5025903;28;20218;-74
2023/11/02 06:00:10;;;;;;;4.40;2.27;;;;;;;8.35;91.05;99156.00;5029692;28;20221;-74
2023/11/02 06:02:37;;;;;;;2.77;1.93;;;;;;;8.33;91.28;99153.72;5027257;28;20232;-73
2023/11/02 06:05:04;;;;;;;4.83;2.20;;;;;;;8.33;90.98;99155.59;5026365;28;20211;-74
2023/11/02 06:07:31;;;;;;;2.33;1.77;;;;;;;8.31;91.66;99145.44;5027020;28;20205;-74
2023/11/02 06:09:58;;;;;;;2.30;2.03;;;;;;;8.31;91.40;99148.06;5024865;28;20670;-74
2023/11/02 06:12:25;;;;;;;2.30;2.03;;;;;;;8.31;91.74;99147.28;5026459;28;20624;-75
2023/11/02 06:14:51;;;;;;;2.40;1.70;;;;;;;8.33;91.64;99150.34;5028295;28;20212;-75
2023/11/02 06:17:18;;;;;;;6.53;2.47;;;;;;;8.32;91.77;99156.69;5027273;28;20207;-73
2023/11/02 06:19:44;;;;;;;3.07;2.13;;;;;;;8.31;92.02;99153.31;5026615;28;20223;-75
2023/11/02 06:22:11;;;;;;;2.83;2.03;;;;;;;8.31;91.85;99148.06;5026539;28;20290;-75
2023/11/02 06:24:37;;;;;;;2.93;2.23;;;;;;;8.32;92.11;99154.84;5025924;28;20217;-75
2023/11/02 06:27:06;;;;;;;4.60;2.50;;;;;;;8.32;91.97;99154.84;5028510;28;20217;-75
2023/11/02 06:29:32;;;;;;;3.97;2.07;;;;;;;8.34;92.31;99146.59;5027554;28;20200;-74
2023/11/02 06:31:58;;;;;;;2.20;2.00;;;;;;;8.35;92.45;99141.00;5026151;28;20226;-75
2023/11/02 06:34:25;;;;;;;2.33;2.00;;;;;;;8.39;92.33;99133.19;5028963;28;20491;-74
2023/11/02 06:36:51;;;;;;;2.33;2.13;;;;;;;8.41;92.56;99138.84;5026268;28;20206;-74
2023/11/02 06:39:20;;;;;;;4.43;2.60;;;;;;;8.44;92.35;99140.81;5024576;28;20204;-74
2023/11/02 06:41:47;;;;;;;4.23;2.30;;;;;;;8.48;92.42;99147.66;5025834;28;20279;-73
2023/11/02 06:44:14;;;;;;;4.77;2.10;;;;;;;8.52;92.45;99145.84;5024607;28;20201;-75
2023/11/02 06:46:41;;;;;;;2.33;2.07;;;;;;;8.58;92.48;99148.94;5028231;28;20217;-74
2023/11/02 06:49:07;;;;;;;3.53;2.37;;;;;;;8.62;92.44;99141.91;5027601;28;20204;-75
2023/11/02 06:51:33;;;;;;;2.60;2.30;;;;;;;8.66;92.52;99132.97;5026599;28;20226;-74
2023/11/02 06:54:00;;;;;;;2.87;2.50;;;;;;;8.71;92.43;99131.94;5024545;28;21070;-74
2023/11/02 06:56:26;;;;;;;3.73;2.40;;;;;;;8.77;92.19;99138.44;5025803;28;20205;-74
2023/11/02 06:58:53;;;;;;;3.63;2.80;;;;;;;8.85;92.59;99134.84;5026446;28;20201;-74
2023/11/02 07:01:21;;;;;;;5.23;2.17;;;;;;;8.93;92.26;99131.97;5024754;28;20221;-74
2023/11/02 07:03:48;;;;;;;5.33;2.50;;;;;;;9.00;92.14;99131.34;5024612;28;20197;-75
2023/11/02 07:06:14;;;;;;;3.33;2.53;;;;;;;9.10;92.23;99131.53;5023393;28;20216;-75
2023/11/02 07:08:41;;;;;;;5.70;2.70;;;;;;;9.18;92.21;99127.91;5023713;28;20195;-74
2023/11/02 07:11:07;;;;;;;2.60;2.40;;;;;;;9.27;91.84;99127.69;5039263;28;20730;-74
2023/11/02 07:13:34;;;;;;;2.90;2.60;;;;;;;9.35;91.55;99130.06;5020849;28;20260;-74
2023/11/02 07:16:01;;;;;;;2.70;2.37;;;;;;;9.44;91.04;99116.66;5023986;28;20446;-74
2023/11/02 07:18:29;;;;;;;2.23;2.03;;;;;;;9.51;91.49;99124.66;5025211;28;20211;-74
2023/11/02 07:20:58;;;;;;;4.87;2.40;;;;;;;9.59;90.88;99113.13;5026818;28;20235;-77
2023/11/02 07:23:24;;;;;;;4.23;2.30;;;;;;;9.66;91.25;99107.97;5026377;28;20318;-74
2023/11/02 07:25:51;;;;;;;2.97;2.00;;;;;;;9.72;90.81;99102.03;5028917;28;20416;-74
2023/11/02 07:28:18;;;;;;;2.20;2.00;;;;;;;9.78;90.46;99105.16;5029462;28;20200;-75
2023/11/02 07:30:44;;;;;;;2.50;2.03;;;;;;;9.83;90.92;99102.94;5029139;28;20212;-74
2023/11/02 07:33:10;;;;;;;2.63;2.10;;;;;;;9.89;90.63;99095.50;5029127;28;20198;-74
2023/11/02 07:35:38;;;;;;;4.40;1.90;;;;;;;9.94;90.00;99082.75;5031460;28;20203;-74
2023/11/02 07:38:04;;;;;;;2.57;2.07;;;;;;;9.98;89.58;99082.81;5029466;28;20195;-75
2023/11/02 07:40:31;;;;;;;7.07;2.37;;;;;;;10.04;91.20;99086.69;5026271;28;20226;-74
2023/11/02 07:42:58;;;;;;;2.07;1.87;;;;;;;10.11;89.93;99078.88;5032742;28;20236;-75
2023/11/02 07:45:25;;;;;;;4.30;1.60;;;;;;;10.19;89.29;99072.56;5028788;28;20210;-73
2023/11/02 07:47:51;;;;;;;2.07;1.80;;;;;;;10.26;89.43;99046.28;5012139;28;20212;-74
2023/11/02 07:50:18;;;;;;;2.60;1.90;;;;;;;10.35;90.88;99042.22;5030027;28;20713;-73
2023/11/02 07:52:46;;;;;;;1.93;1.80;;;;;;;10.43;89.29;99041.19;5028132;28;20190;-74
2023/11/02 07:55:12;;;;;;;1.87;1.70;;;;;;;10.52;88.92;99031.13;5029270;28;20478;-74
2023/11/02 07:57:39;;;;;;;3.17;1.90;;;;;;;10.60;88.15;99029.28;5027938;28;20203;-74
2023/11/02 08:00:07;;;;;;;2.80;1.90;;;;;;;10.67;89.09;99021.44;5030631;28;20249;-74
2023/11/02 08:02:39;;;;;;;4.10;1.70;;;;;;;10.72;88.37;99015.84;5029867;28;20211;-74
2023/11/02 08:05:07;;;;;;;2.50;1.90;;;;;;;10.79;88.90;99007.97;5022529;28;20232;-74
2023/11/02 08:07:34;;;;;;;1.70;1.60;;;;;;;10.84;86.82;99007.66;5025932;28;20197;-75
2023/11/02 08:10:02;;;;;;;2.40;1.77;;;;;;;10.88;86.44;98993.34;5022925;28;20212;-74
2023/11/02 08:12:30;;;;;;;1.80;1.70;;;;;;;10.93;86.56;98997.53;5027647;28;20200;-74
2023/11/02 08:14:57;;;;;;;3.67;1.70;;;;;;;10.98;87.37;99000.59;5026587;28;20207;-74
2023/11/02 08:17:27;;;;;;;6.10;1.80;;;;;;;11.05;85.62;98995.38;5027556;28;20256;-74
2023/11/02 08:19:54;;;;;;;3.27;1.67;;;;;;;11.09;85.15;98976.91;5026853;28;20217;-75
2023/11/02 08:22:20;;;;;;;2.20;1.67;;;;;;;11.15;85.09;98975.44;5028994;28;20217;-75
2023/11/02 08:24:47;;;;;;;2.40;1.80;;;;;;;11.18;85.32;98972.81;5030684;28;20593;-74
2023/11/02 08:27:15;;;;;;;1.73;1.60;;;;;;;11.22;85.74;98968.31;5029193;28;20553;-75
2023/11/02 08:29:42;;;;;;;3.70;1.73;;;;;;;11.24;85.79;98965.31;5029534;28;20460;-74
2023/11/02 08:32:08;;;;;;;1.67;1.57;;;;;;;11.26;83.84;98947.19;5009936;28;20412;-74
2023/11/02 08:34:34;;;;;;;2.07;1.87;;;;;;;11.27;85.04;98956.63;5030494;28;20198;-75
2023/11/02 08:37:01;;;;;;;2.53;1.80;;;;;;;11.30;84.75;98947.97;5030428;28;20229;-74
2023/11/02 08:39:27;;;;;;;2.03;1.80;;;;;;;11.34;84.99;98957.44;5028554;28;20205;-75
2023/11/02 08:41:53;;;;;;;2.00;1.70;;;;;;;11.39;85.26;98951.06;5021701;28;20685;-74
2023/11/02 08:44:22;;;;;;;3.40;2.10;;;;;;;11.42;85.44;98953.72;5014802;28;20215;-74
2023/11/02 08:46:50;;;;;;;2.17;1.90;;;;;;;11.44;84.58;98950.72;5023045;28;20269;-73
2023/11/02 08:49:17;;;;;;;4.93;2.30;;;;;;;11.47;84.25;98934.88;5028999;28;20752;-73
2023/11/02 08:51:44;;;;;;;2.17;1.60;;;;;;;11.53;83.48;98925.44;5028586;28;20761;-74
2023/11/02 08:54:10;;;;;;;1.83;1.73;;;;;;;11.60;81.52;98922.84;5025845;28;20634;-74
2023/11/02 08:56:37;;;;;;;1.70;1.57;;;;;;;11.67;86.03;98924.78;5030180;28;20208;-75
2023/11/02 08:59:03;;;;;;;3.20;1.67;;;;;;;11.76;83.52;98920.66;5028287;28;20218;-74
2023/11/02 09:01:32;;;;;;;2.70;1.60;;;;;;;11.83;83.24;98910.13;5026346;28;20221;-74
2023/11/02 09:03:58;;;;;;;3.90;1.93;;;;;;;11.91;82.83;98909.00;5020816;28;20204;-74
2023/11/02 09:06:26;;;;;;;2.67;1.70;;;;;;;12.00;82.27;98911.31;5025852;28;20207;-75
2023/11/02 09:08:55;;;;;;;1.40;1.30;;;;;;;12.05;81.00;98909.03;5027435;28;20301;-74
2023/11/02 09:11:21;;;;;;;3.50;1.90;;;;;;;12.11;81.26;98907.53;5026806;28;20222;-75
2023/11/02 09:13:48;;;;;;;3.10;1.90;;;;;;;12.18;82.60;98894.34;5023914;28;20207;-73
2023/11/02 09:16:14;;;;;;;2.03;1.73;;;;;;;12.23;81.00;98896.59;5021408;28;20567;-74
2023/11/02 09:18:42;;;;;;;5.13;1.70;;;;;;;12.28;81.09;98888.31;5024512;28;20202;-75
2023/11/02 09:21:08;;;;;;;5.33;2.00;;;;;;;12.34;81.18;98889.44;5029258;28;20246;-74
2023/11/02 09:23:37;;;;;;;2.30;1.80;;;;;;;12.41;80.94;98886.00;5022518;28;20295;-74
2023/11/02 09:26:05;;;;;;;2.73;1.73;;;;;;;12.46;82.99;98885.63;5023199;28;20226;-74
2023/11/02 09:28:31;;;;;;;1.80;1.67;;;;;;;12.52;82.00;98876.22;5026173;28;20207;-74
2023/11/02 09:30:58;;;;;;;3.80;1.77;;;;;;;12.57;84.39;98865.25;5021876;28;20372;-75
2023/11/02 09:33:24;;;;;;;2.40;1.90;;;;;;;12.61;81.75;98876.56;5026836;28;20200;-74
2023/11/02 09:35:52;;;;;;;2.73;2.00;;;;;;;12.65;81.62;98880.75;5026455;28;20207;-74
2023/11/02 09:38:19;;;;;;;2.13;1.93;;;;;;;12.70;81.24;98875.06;5027235;28;20207;-75
2023/11/02 09:40:45;;;;;;;2.20;1.80;;;;;;;12.74;79.01;98875.06;5027673;28;20725;-74
2023/11/02 09:43:12;;;;;;;2.37;1.83;;;;;;;12.77;78.28;98866.31;5022590;28;20590;-74
2023/11/02 09:45:38;;;;;;;4.30;2.30;;;;;;;12.82;80.00;98852.69;5024545;28;20196;-75
2023/11/02 09:48:05;;;;;;;5.40;2.13;;;;;;;12.87;78.92;98847.78;5026690;28;20212;-75
2023/11/02 09:50:31;;;;;;;3.13;1.80;;;;;;;12.91;79.96;98835.28;5008758;28;20417;-74
2023/11/02 09:53:00;;;;;;;4.87;2.07;;;;;;;12.96;77.60;98836.81;5030885;28;20208;-73
2023/11/02 09:55:27;;;;;;;2.00;1.57;;;;;;;13.01;77.37;98820.53;5025447;28;20203;-74
2023/11/02 09:57:54;;;;;;;5.37;1.90;;;;;;;13.04;79.26;98815.22;5028856;28;20200;-74
2023/11/02 10:00:21;;;;;;;4.03;1.80;;;;;;;13.08;76.91;98804.59;5025648;28;20718;-75
2023/11/02 10:02:48;;;;;;;2.60;1.77;;;;;;;13.11;75.35;98786.06;5025811;28;20220;-75
2023/11/02 10:05:15;;;;;;;3.10;1.90;;;;;;;13.15;78.13;98772.78;5023610;28;20200;-73
2023/11/02 10:07:41;;;;;;;4.67;1.93;;;;;;;13.18;76.52;98774.66;5026631;28;20206;-74
2023/11/02 10:10:16;;;;;;;3.37;1.90;;;;;;;13.20;79.44;98759.88;5023871;28;20609;-74
2023/11/02 10:12:45;;;;;;;2.90;1.80;;;;;;;13.22;75.22;98751.53;5024547;28;20190;-74
2023/11/02 10:15:17;;;;;;;4.80;1.90;;;;;;;13.24;75.69;98736.75;5040405;28;20192;-75
2023/11/02 10:17:45;;;;;;;2.60;2.00;;;;;;;13.29;78.30;98733.72;5021033;28;20200;-74
2023/11/02 10:20:17;;;;;;;2.70;2.07;;;;;;;13.32;76.30;98717.03;5022658;28;20489;-74
2023/11/02 10:22:58;;;;;;;2.83;2.07;;;;;;;13.39;76.51;98705.63;5008026;28;20247;-74
2023/11/02 10:25:28;;;;;;;2.20;1.97;;;;;;;13.46;73.32;98721.50;5008355;28;20196;-74
2023/11/02 10:28:00;;;;;;;3.77;1.90;;;;;;;13.51;74.24;98719.19;5010927;28;20595;-75
2023/11/02 10:30:28;;;;;;;2.30;2.10;;;;;;;13.57;75.11;98711.56;5028983;28;20207;-74
2023/11/02 10:33:05;;;;;;;3.63;2.33;;;;;;;13.62;73.45;98701.28;5026318;28;20207;-75
2023/11/02 10:35:32;;;;;;;4.23;2.40;;;;;;;13.72;77.88;98689.09;5022561;28;20429;-74
2023/11/02 10:37:59;;;;;;;2.33;1.90;;;;;;;13.76;74.17;98666.72;5017762;28;20267;-74
2023/11/02 10:40:41;;;;;;;3.67;2.63;;;;;;;13.79;71.36;98636.75;5025759;28;20222;-75
2023/11/02 10:43:18;;;;;;;3.27;1.83;;;;;;;13.84;75.89;98635.56;5020894;28;20807;-76
2023/11/02 10:45:49;;;;;;;2.43;1.93;;;;;;;13.91;78.62;98652.16;5004251;28;20218;-75
2023/11/02 10:48:16;;;;;;;3.17;2.10;;;;;;;13.96;73.48;98657.06;5019256;28;20329;-74
2023/11/02 10:50:47;;;;;;;2.43;2.03;;;;;;;14.02;73.17;98660.03;5000133;28;20246;-77
2023/11/02 10:53:19;;;;;;;2.57;2.37;;;;;;;14.10;74.68;98678.16;5019548;28;20215;-75
2023/11/02 10:55:59;;;;;;;3.00;2.13;;;;;;;14.16;71.77;98675.81;5022328;28;20204;-76
2023/11/02 10:58:26;;;;;;;2.80;2.30;;;;;;;14.22;72.05;98674.25;5022193;28;20289;-75
2023/11/02 11:01:01;;;;;;;3.63;2.63;;;;;;;14.26;71.25;98670.44;5019303;28;20243;-76
2023/11/02 11:03:33;;;;;;;4.43;2.63;;;;;;;14.33;73.79;98673.00;5025287;28;20811;-76
2023/11/02 11:06:00;;;;;;;3.47;2.23;;;;;;;14.36;73.21;98666.91;5026039;28;20294;-76
2023/11/02 11:08:31;;;;;;;2.77;2.43;;;;;;;14.40;72.62;98658.91;5006616;28;20227;-76
2023/11/02 11:11:00;;;;;;;2.37;2.07;;;;;;;14.47;72.52;98642.88;5008305;28;20228;-76
2023/11/02 11:13:32;;;;;;;4.37;2.50;;;;;;;14.55;80.07;98631.03;5023725;28;20195;-76
2023/11/02 11:16:05;;;;;;;6.80;3.03;;;;;;;14.61;76.83;98632.09;5024936;28;20920;-76
2023/11/02 11:18:33;;;;;;;4.47;2.30;;;;;;;14.65;72.99;98633.56;5013385;28;20679;-76
2023/11/02 11:21:00;;;;;;;3.07;2.20;;;;;;;14.69;68.69;98628.22;5023386;28;20240;-74
2023/11/02 11:23:27;;;;;;;2.90;2.60;;;;;;;14.77;76.63;98642.91;5022854;28;20219;-76
2023/11/02 11:26:02;;;;;;;3.93;2.40;;;;;;;14.79;74.74;98638.69;5021089;28;20208;-76
2023/11/02 11:28:33;;;;;;;2.67;2.30;;;;;;;14.82;71.99;98619.31;5023079;28;20197;-76
2023/11/02 11:31:00;;;;;;;5.20;2.67;;;;;;;14.86;71.45;98613.94;5022665;28;20234;-76
2023/11/02 11:33:49;;;;;;;3.10;2.57;;;;;;;14.91;76.29;98626.78;5020754;28;20281;-75
2023/11/02 11:36:26;;;;;;;2.90;2.50;;;;;;;14.93;78.23;98619.91;5020880;28;20245;-76
2023/11/02 11:38:57;;;;;;;3.10;2.60;;;;;;;14.94;70.43;98618.75;5025190;28;20646;-76
2023/11/02 11:41:47;;;;;;;4.63;2.67;;;;;;;14.98;72.86;98608.06;5021448;28;20212;-75
2023/11/02 11:44:16;;;;;;;3.07;2.50;;;;;;;14.99;70.45;98617.53;5025779;28;20537;-75
2023/11/02 11:46:46;;;;;;;2.93;2.50;;;;;;;15.03;73.93;98600.41;5021823;28;20196;-74
2023/11/02 11:49:44;;;;;;;2.50;1.90;;;;;;;15.06;74.51;98606.81;5027940;28;20284;-76
2023/11/02 11:52:25;;;;;;;2.40;2.20;;;;;;;15.07;67.04;98593.09;5026254;28;20224;-76
2023/11/02 11:54:53;;;;;;;3.17;2.10;;;;;;;15.12;67.27;98597.97;5023129;28;20673;-76